Old Fort, Ohio
Current Conditions -  °F | °C
As of 4:32 PM on Saturday 20 Dec 2014 (Local Time) from KPCW Reporting Station
Overcast Overcast  
Wind Chill: 32°   Ceiling: 2900
Heat Index: 32°   Visibility: 10mi
Dew Point: 21°   Wind: 0mph
Humidity: 64%   Direction: NA
Pressure: 30.26"   Gusts: NA
Location:  41.24°N, 83.15°W
Report Text: KPCW 202132Z AUTO 00000KT 10SM OVC029 00/M06 A3026 RMK AO2 $
Loading
Personal Weather Stations






























Interactive Weather Map New forecast layout! Learn more

10-Day Weather Forecast

Advertisements
Track Severe Weather on mobile